sensor_id;sensor_type;location;lat;lon;timestamp;P1;durP1;ratioP1;P2;durP2;ratioP2
57055;SDS011;42945;51.718;5.324;2023-07-13T00:00:35;8.07;;;1.45;;
57055;SDS011;42945;51.718;5.324;2023-07-13T00:03:02;9.05;;;1.55;;
57055;SDS011;42945;51.718;5.324;2023-07-13T00:05:28;9.27;;;1.58;;
57055;SDS011;42945;51.718;5.324;2023-07-13T00:07:53;3.50;;;1.25;;
57055;SDS011;42945;51.718;5.324;2023-07-13T00:10:19;7.70;;;1.38;;
57055;SDS011;42945;51.718;5.324;2023-07-13T00:12:45;7.10;;;1.50;;
57055;SDS011;42945;51.718;5.324;2023-07-13T00:15:15;8.82;;;2.17;;
57055;SDS011;42945;51.718;5.324;2023-07-13T00:17:49;11.52;;;1.88;;
57055;SDS011;42945;51.718;5.324;2023-07-13T00:20:15;7.03;;;1.65;;
57055;SDS011;42945;51.718;5.324;2023-07-13T00:22:40;8.77;;;1.50;;
57055;SDS011;42945;51.718;5.324;2023-07-13T00:25:06;7.18;;;1.98;;
57055;SDS011;42945;51.718;5.324;2023-07-13T00:27:32;12.35;;;1.92;;
57055;SDS011;42945;51.718;5.324;2023-07-13T00:29:58;6.47;;;1.70;;
57055;SDS011;42945;51.718;5.324;2023-07-13T00:32:23;6.45;;;1.50;;
57055;SDS011;42945;51.718;5.324;2023-07-13T00:34:52;6.93;;;1.48;;
57055;SDS011;42945;51.718;5.324;2023-07-13T00:37:17;8.05;;;1.75;;
57055;SDS011;42945;51.718;5.324;2023-07-13T00:39:43;10.85;;;2.33;;
57055;SDS011;42945;51.718;5.324;2023-07-13T00:42:08;11.25;;;2.05;;
57055;SDS011;42945;51.718;5.324;2023-07-13T00:44:34;9.50;;;2.35;;
57055;SDS011;42945;51.718;5.324;2023-07-13T00:47:00;7.55;;;1.70;;
57055;SDS011;42945;51.718;5.324;2023-07-13T00:49:26;8.27;;;2.05;;
57055;SDS011;42945;51.718;5.324;2023-07-13T00:52:02;8.65;;;1.95;;
57055;SDS011;42945;51.718;5.324;2023-07-13T00:54:36;9.75;;;2.50;;
57055;SDS011;42945;51.718;5.324;2023-07-13T00:57:05;8.57;;;2.10;;
57055;SDS011;42945;51.718;5.324;2023-07-13T00:59:34;8.43;;;2.20;;
57055;SDS011;42945;51.718;5.324;2023-07-13T01:02:02;6.80;;;2.22;;
57055;SDS011;42945;51.718;5.324;2023-07-13T01:04:28;8.27;;;2.08;;
57055;SDS011;42945;51.718;5.324;2023-07-13T01:06:54;13.15;;;2.60;;
57055;SDS011;42945;51.718;5.324;2023-07-13T01:09:20;11.63;;;2.05;;
57055;SDS011;42945;51.718;5.324;2023-07-13T01:11:46;8.60;;;2.38;;
57055;SDS011;42945;51.718;5.324;2023-07-13T01:14:12;10.38;;;2.10;;
57055;SDS011;42945;51.718;5.324;2023-07-13T01:16:39;11.60;;;2.30;;
57055;SDS011;42945;51.718;5.324;2023-07-13T01:19:21;14.30;;;2.63;;
57055;SDS011;42945;51.718;5.324;2023-07-13T01:22:11;10.38;;;2.10;;
57055;SDS011;42945;51.718;5.324;2023-07-13T01:24:39;14.07;;;2.35;;
57055;SDS011;42945;51.718;5.324;2023-07-13T01:27:08;10.38;;;2.75;;
57055;SDS011;42945;51.718;5.324;2023-07-13T01:29:35;11.68;;;2.40;;
57055;SDS011;42945;51.718;5.324;2023-07-13T01:32:07;8.30;;;2.20;;
57055;SDS011;42945;51.718;5.324;2023-07-13T01:34:33;11.35;;;2.72;;
57055;SDS011;42945;51.718;5.324;2023-07-13T01:36:59;7.57;;;2.15;;
57055;SDS011;42945;51.718;5.324;2023-07-13T01:39:24;12.50;;;2.75;;
57055;SDS011;42945;51.718;5.324;2023-07-13T01:41:50;10.07;;;2.47;;
57055;SDS011;42945;51.718;5.324;2023-07-13T01:44:15;10.43;;;2.55;;
57055;SDS011;42945;51.718;5.324;2023-07-13T01:46:40;8.55;;;2.50;;
57055;SDS011;42945;51.718;5.324;2023-07-13T01:49:06;14.55;;;2.67;;
57055;SDS011;42945;51.718;5.324;2023-07-13T01:51:31;10.57;;;2.42;;
57055;SDS011;42945;51.718;5.324;2023-07-13T01:53:56;11.55;;;3.03;;
57055;SDS011;42945;51.718;5.324;2023-07-13T01:56:22;11.73;;;2.63;;
57055;SDS011;42945;51.718;5.324;2023-07-13T01:58:47;15.02;;;2.60;;
57055;SDS011;42945;51.718;5.324;2023-07-13T02:01:13;15.48;;;3.00;;
57055;SDS011;42945;51.718;5.324;2023-07-13T02:03:38;13.77;;;3.10;;
57055;SDS011;42945;51.718;5.324;2023-07-13T02:06:04;15.55;;;3.00;;
57055;SDS011;42945;51.718;5.324;2023-07-13T02:08:29;18.00;;;2.97;;
57055;SDS011;42945;51.718;5.324;2023-07-13T02:10:55;12.93;;;3.08;;
57055;SDS011;42945;51.718;5.324;2023-07-13T02:13:20;20.02;;;3.10;;
57055;SDS011;42945;51.718;5.324;2023-07-13T02:15:46;17.90;;;3.08;;
57055;SDS011;42945;51.718;5.324;2023-07-13T02:18:14;17.20;;;3.28;;
57055;SDS011;42945;51.718;5.324;2023-07-13T02:20:42;11.18;;;2.63;;
57055;SDS011;42945;51.718;5.324;2023-07-13T02:23:07;13.18;;;2.85;;
57055;SDS011;42945;51.718;5.324;2023-07-13T02:25:33;9.40;;;2.92;;
57055;SDS011;42945;51.718;5.324;2023-07-13T02:27:58;12.13;;;2.80;;
57055;SDS011;42945;51.718;5.324;2023-07-13T02:30:23;13.50;;;3.03;;
57055;SDS011;42945;51.718;5.324;2023-07-13T02:32:50;14.25;;;2.95;;
57055;SDS011;42945;51.718;5.324;2023-07-13T02:35:15;9.23;;;3.05;;
57055;SDS011;42945;51.718;5.324;2023-07-13T02:37:41;14.15;;;3.42;;
57055;SDS011;42945;51.718;5.324;2023-07-13T02:40:06;10.57;;;2.95;;
57055;SDS011;42945;51.718;5.324;2023-07-13T02:42:33;16.13;;;3.88;;
57055;SDS011;42945;51.718;5.324;2023-07-13T02:44:59;16.58;;;3.50;;
57055;SDS011;42945;51.718;5.324;2023-07-13T02:47:25;13.57;;;3.53;;
57055;SDS011;42945;51.718;5.324;2023-07-13T02:49:51;14.00;;;3.50;;
57055;SDS011;42945;51.718;5.324;2023-07-13T02:52:17;15.15;;;3.63;;
57055;SDS011;42945;51.718;5.324;2023-07-13T02:54:42;17.80;;;3.75;;
57055;SDS011;42945;51.718;5.324;2023-07-13T02:57:08;16.98;;;3.45;;
57055;SDS011;42945;51.718;5.324;2023-07-13T02:59:33;14.60;;;3.50;;
57055;SDS011;42945;51.718;5.324;2023-07-13T03:02:00;11.85;;;3.38;;
57055;SDS011;42945;51.718;5.324;2023-07-13T03:04:26;18.95;;;4.30;;
57055;SDS011;42945;51.718;5.324;2023-07-13T03:06:52;15.75;;;3.58;;
57055;SDS011;42945;51.718;5.324;2023-07-13T03:09:18;14.00;;;3.33;;
57055;SDS011;42945;51.718;5.324;2023-07-13T03:11:43;15.02;;;3.85;;
57055;SDS011;42945;51.718;5.324;2023-07-13T03:14:08;14.68;;;3.50;;
57055;SDS011;42945;51.718;5.324;2023-07-13T03:16:34;14.35;;;3.85;;
57055;SDS011;42945;51.718;5.324;2023-07-13T03:18:59;16.02;;;3.63;;
57055;SDS011;42945;51.718;5.324;2023-07-13T03:21:25;13.63;;;4.18;;
57055;SDS011;42945;51.718;5.324;2023-07-13T03:23:50;16.55;;;3.90;;
57055;SDS011;42945;51.718;5.324;2023-07-13T03:26:17;8.43;;;3.30;;
57055;SDS011;42945;51.718;5.324;2023-07-13T03:28:44;12.70;;;3.38;;
57055;SDS011;42945;51.718;5.324;2023-07-13T03:31:19;12.63;;;3.45;;
57055;SDS011;42945;51.718;5.324;2023-07-13T03:33:48;18.75;;;3.72;;
57055;SDS011;42945;51.718;5.324;2023-07-13T03:36:15;14.48;;;3.92;;
57055;SDS011;42945;51.718;5.324;2023-07-13T03:38:51;13.98;;;3.92;;
57055;SDS011;42945;51.718;5.324;2023-07-13T03:41:18;15.73;;;3.50;;
57055;SDS011;42945;51.718;5.324;2023-07-13T03:43:45;17.77;;;4.13;;
57055;SDS011;42945;51.718;5.324;2023-07-13T03:46:12;13.23;;;4.15;;
57055;SDS011;42945;51.718;5.324;2023-07-13T03:48:38;21.30;;;4.55;;
57055;SDS011;42945;51.718;5.324;2023-07-13T03:51:05;17.55;;;4.05;;
57055;SDS011;42945;51.718;5.324;2023-07-13T03:53:30;16.85;;;4.13;;
57055;SDS011;42945;51.718;5.324;2023-07-13T03:55:55;17.92;;;4.40;;
57055;SDS011;42945;51.718;5.324;2023-07-13T03:58:25;13.52;;;4.35;;
57055;SDS011;42945;51.718;5.324;2023-07-13T04:00:53;15.63;;;4.10;;
57055;SDS011;42945;51.718;5.324;2023-07-13T04:03:19;14.10;;;4.72;;
57055;SDS011;42945;51.718;5.324;2023-07-13T04:05:45;14.60;;;4.45;;
57055;SDS011;42945;51.718;5.324;2023-07-13T04:08:11;22.40;;;4.65;;
57055;SDS011;42945;51.718;5.324;2023-07-13T04:10:36;16.77;;;4.60;;
57055;SDS011;42945;51.718;5.324;2023-07-13T04:13:02;16.88;;;4.30;;
57055;SDS011;42945;51.718;5.324;2023-07-13T04:15:29;19.15;;;4.90;;
57055;SDS011;42945;51.718;5.324;2023-07-13T04:17:55;23.27;;;4.93;;
57055;SDS011;42945;51.718;5.324;2023-07-13T04:20:21;19.08;;;5.40;;
57055;SDS011;42945;51.718;5.324;2023-07-13T04:22:46;14.13;;;4.50;;
57055;SDS011;42945;51.718;5.324;2023-07-13T04:25:12;15.88;;;4.60;;
57055;SDS011;42945;51.718;5.324;2023-07-13T04:27:37;16.55;;;4.35;;
57055;SDS011;42945;51.718;5.324;2023-07-13T04:30:04;13.70;;;4.60;;
57055;SDS011;42945;51.718;5.324;2023-07-13T04:32:30;19.23;;;4.68;;
57055;SDS011;42945;51.718;5.324;2023-07-13T04:34:57;17.38;;;5.15;;
57055;SDS011;42945;51.718;5.324;2023-07-13T04:37:24;18.05;;;4.43;;
57055;SDS011;42945;51.718;5.324;2023-07-13T04:39:50;15.02;;;4.20;;
57055;SDS011;42945;51.718;5.324;2023-07-13T04:42:15;21.85;;;5.18;;
57055;SDS011;42945;51.718;5.324;2023-07-13T04:44:41;14.52;;;4.35;;
57055;SDS011;42945;51.718;5.324;2023-07-13T04:47:07;21.52;;;4.47;;
57055;SDS011;42945;51.718;5.324;2023-07-13T04:49:32;20.05;;;4.72;;
57055;SDS011;42945;51.718;5.324;2023-07-13T04:51:58;24.55;;;4.82;;
57055;SDS011;42945;51.718;5.324;2023-07-13T04:54:23;23.73;;;5.13;;
57055;SDS011;42945;51.718;5.324;2023-07-13T04:56:49;18.20;;;4.88;;
57055;SDS011;42945;51.718;5.324;2023-07-13T04:59:14;19.75;;;5.53;;
57055;SDS011;42945;51.718;5.324;2023-07-13T05:01:40;15.13;;;5.53;;
57055;SDS011;42945;51.718;5.324;2023-07-13T05:04:06;15.13;;;4.97;;
57055;SDS011;42945;51.718;5.324;2023-07-13T05:06:31;18.20;;;5.57;;
57055;SDS011;42945;51.718;5.324;2023-07-13T05:08:57;21.23;;;6.07;;
57055;SDS011;42945;51.718;5.324;2023-07-13T05:11:23;23.00;;;6.00;;
57055;SDS011;42945;51.718;5.324;2023-07-13T05:13:49;23.33;;;6.68;;
57055;SDS011;42945;51.718;5.324;2023-07-13T05:16:14;24.50;;;7.30;;
57055;SDS011;42945;51.718;5.324;2023-07-13T05:18:40;23.02;;;6.57;;
57055;SDS011;42945;51.718;5.324;2023-07-13T05:21:07;20.00;;;6.00;;
57055;SDS011;42945;51.718;5.324;2023-07-13T05:23:35;21.27;;;7.15;;
57055;SDS011;42945;51.718;5.324;2023-07-13T05:26:02;24.02;;;7.32;;
57055;SDS011;42945;51.718;5.324;2023-07-13T05:28:29;24.25;;;7.47;;
57055;SDS011;42945;51.718;5.324;2023-07-13T05:30:55;22.67;;;7.68;;
57055;SDS011;42945;51.718;5.324;2023-07-13T05:33:21;27.65;;;8.07;;
57055;SDS011;42945;51.718;5.324;2023-07-13T05:35:47;16.98;;;6.65;;
57055;SDS011;42945;51.718;5.324;2023-07-13T05:38:12;24.67;;;8.90;;
57055;SDS011;42945;51.718;5.324;2023-07-13T05:40:38;25.17;;;7.20;;
57055;SDS011;42945;51.718;5.324;2023-07-13T05:43:04;21.85;;;7.75;;
57055;SDS011;42945;51.718;5.324;2023-07-13T05:45:29;22.45;;;7.45;;
57055;SDS011;42945;51.718;5.324;2023-07-13T05:47:54;23.23;;;8.35;;
57055;SDS011;42945;51.718;5.324;2023-07-13T05:50:20;25.00;;;7.70;;
57055;SDS011;42945;51.718;5.324;2023-07-13T05:52:46;30.73;;;9.00;;
57055;SDS011;42945;51.718;5.324;2023-07-13T05:55:12;22.38;;;8.60;;
57055;SDS011;42945;51.718;5.324;2023-07-13T05:57:37;30.20;;;8.70;;
57055;SDS011;42945;51.718;5.324;2023-07-13T06:00:02;27.05;;;9.05;;
57055;SDS011;42945;51.718;5.324;2023-07-13T06:02:28;24.30;;;9.00;;
57055;SDS011;42945;51.718;5.324;2023-07-13T06:04:54;28.10;;;9.10;;
57055;SDS011;42945;51.718;5.324;2023-07-13T06:07:19;27.50;;;9.27;;
57055;SDS011;42945;51.718;5.324;2023-07-13T06:09:44;28.05;;;9.73;;
57055;SDS011;42945;51.718;5.324;2023-07-13T06:12:10;27.92;;;9.88;;
57055;SDS011;42945;51.718;5.324;2023-07-13T06:14:35;22.05;;;9.07;;
57055;SDS011;42945;51.718;5.324;2023-07-13T06:17:01;24.05;;;9.55;;
57055;SDS011;42945;51.718;5.324;2023-07-13T06:19:26;27.83;;;10.27;;
57055;SDS011;42945;51.718;5.324;2023-07-13T06:21:51;30.52;;;10.30;;
57055;SDS011;42945;51.718;5.324;2023-07-13T06:24:17;26.85;;;10.10;;
57055;SDS011;42945;51.718;5.324;2023-07-13T06:26:42;29.42;;;10.93;;
57055;SDS011;42945;51.718;5.324;2023-07-13T06:29:07;33.25;;;11.15;;
57055;SDS011;42945;51.718;5.324;2023-07-13T06:31:33;31.63;;;11.77;;
57055;SDS011;42945;51.718;5.324;2023-07-13T06:33:58;28.90;;;11.85;;
57055;SDS011;42945;51.718;5.324;2023-07-13T06:36:23;34.08;;;12.43;;
57055;SDS011;42945;51.718;5.324;2023-07-13T06:38:49;29.38;;;11.27;;
57055;SDS011;42945;51.718;5.324;2023-07-13T06:41:14;42.42;;;13.60;;
57055;SDS011;42945;51.718;5.324;2023-07-13T06:43:40;29.67;;;12.18;;
57055;SDS011;42945;51.718;5.324;2023-07-13T06:46:08;32.78;;;12.90;;
57055;SDS011;42945;51.718;5.324;2023-07-13T06:48:34;31.63;;;13.00;;
57055;SDS011;42945;51.718;5.324;2023-07-13T06:51:01;26.60;;;11.55;;
57055;SDS011;42945;51.718;5.324;2023-07-13T06:53:27;30.08;;;12.88;;
57055;SDS011;42945;51.718;5.324;2023-07-13T06:55:53;31.45;;;12.07;;
57055;SDS011;42945;51.718;5.324;2023-07-13T06:58:18;38.28;;;14.45;;
57055;SDS011;42945;51.718;5.324;2023-07-13T07:00:44;29.45;;;13.25;;
57055;SDS011;42945;51.718;5.324;2023-07-13T07:03:10;32.70;;;12.48;;
57055;SDS011;42945;51.718;5.324;2023-07-13T07:05:36;35.67;;;13.20;;
57055;SDS011;42945;51.718;5.324;2023-07-13T07:08:01;32.97;;;12.77;;
57055;SDS011;42945;51.718;5.324;2023-07-13T07:10:28;28.58;;;11.88;;
57055;SDS011;42945;51.718;5.324;2023-07-13T07:12:55;30.98;;;13.25;;
57055;SDS011;42945;51.718;5.324;2023-07-13T07:15:21;30.25;;;12.82;;
57055;SDS011;42945;51.718;5.324;2023-07-13T07:17:46;35.53;;;13.52;;
57055;SDS011;42945;51.718;5.324;2023-07-13T07:20:12;28.85;;;13.20;;
57055;SDS011;42945;51.718;5.324;2023-07-13T07:22:37;27.23;;;13.23;;
57055;SDS011;42945;51.718;5.324;2023-07-13T07:25:03;35.25;;;13.70;;
57055;SDS011;42945;51.718;5.324;2023-07-13T07:27:29;34.95;;;13.27;;
57055;SDS011;42945;51.718;5.324;2023-07-13T07:29:54;33.78;;;13.00;;
57055;SDS011;42945;51.718;5.324;2023-07-13T07:32:20;30.77;;;12.63;;
57055;SDS011;42945;51.718;5.324;2023-07-13T07:34:46;30.42;;;13.27;;
57055;SDS011;42945;51.718;5.324;2023-07-13T07:37:12;29.85;;;12.75;;
57055;SDS011;42945;51.718;5.324;2023-07-13T07:39:38;30.08;;;12.52;;
57055;SDS011;42945;51.718;5.324;2023-07-13T07:42:04;29.88;;;12.27;;
57055;SDS011;42945;51.718;5.324;2023-07-13T07:44:31;21.70;;;12.30;;
57055;SDS011;42945;51.718;5.324;2023-07-13T07:46:57;27.63;;;11.70;;
57055;SDS011;42945;51.718;5.324;2023-07-13T07:49:22;27.13;;;12.00;;
57055;SDS011;42945;51.718;5.324;2023-07-13T07:51:48;26.40;;;11.65;;
57055;SDS011;42945;51.718;5.324;2023-07-13T07:54:14;22.42;;;10.88;;
57055;SDS011;42945;51.718;5.324;2023-07-13T07:56:39;30.48;;;12.10;;
57055;SDS011;42945;51.718;5.324;2023-07-13T07:59:05;21.50;;;10.10;;
57055;SDS011;42945;51.718;5.324;2023-07-13T08:01:30;24.67;;;10.20;;
57055;SDS011;42945;51.718;5.324;2023-07-13T08:03:56;19.98;;;9.23;;
57055;SDS011;42945;51.718;5.324;2023-07-13T08:06:21;32.35;;;10.00;;
57055;SDS011;42945;51.718;5.324;2023-07-13T08:08:48;21.98;;;9.90;;
57055;SDS011;42945;51.718;5.324;2023-07-13T08:11:13;26.70;;;9.63;;
57055;SDS011;42945;51.718;5.324;2023-07-13T08:13:39;22.13;;;9.48;;
57055;SDS011;42945;51.718;5.324;2023-07-13T08:16:05;23.80;;;9.88;;
57055;SDS011;42945;51.718;5.324;2023-07-13T08:18:31;21.58;;;8.55;;
57055;SDS011;42945;51.718;5.324;2023-07-13T08:20:57;25.00;;;8.43;;
57055;SDS011;42945;51.718;5.324;2023-07-13T08:23:23;22.40;;;9.15;;
57055;SDS011;42945;51.718;5.324;2023-07-13T08:25:51;22.70;;;6.95;;
57055;SDS011;42945;51.718;5.324;2023-07-13T08:28:17;19.83;;;6.60;;
57055;SDS011;42945;51.718;5.324;2023-07-13T08:30:44;15.90;;;7.07;;
57055;SDS011;42945;51.718;5.324;2023-07-13T08:33:10;19.40;;;7.65;;
57055;SDS011;42945;51.718;5.324;2023-07-13T08:35:36;16.00;;;7.10;;
57055;SDS011;42945;51.718;5.324;2023-07-13T08:38:01;15.55;;;7.35;;
57055;SDS011;42945;51.718;5.324;2023-07-13T08:40:30;16.67;;;6.20;;
57055;SDS011;42945;51.718;5.324;2023-07-13T08:42:57;19.75;;;5.30;;
57055;SDS011;42945;51.718;5.324;2023-07-13T08:45:25;15.13;;;5.50;;
57055;SDS011;42945;51.718;5.324;2023-07-13T08:50:35;8.35;;;4.10;;
57055;SDS011;42945;51.718;5.324;2023-07-13T08:53:07;10.57;;;4.47;;
57055;SDS011;42945;51.718;5.324;2023-07-13T08:55:38;10.15;;;3.45;;
57055;SDS011;42945;51.718;5.324;2023-07-13T08:58:11;9.77;;;4.07;;
57055;SDS011;42945;51.718;5.324;2023-07-13T09:03:16;14.57;;;3.90;;
57055;SDS011;42945;51.718;5.324;2023-07-13T09:05:53;10.85;;;3.63;;
57055;SDS011;42945;51.718;5.324;2023-07-13T09:08:31;10.80;;;3.55;;
57055;SDS011;42945;51.718;5.324;2023-07-13T09:11:28;10.63;;;3.60;;
57055;SDS011;42945;51.718;5.324;2023-07-13T09:16:30;12.13;;;4.50;;
57055;SDS011;42945;51.718;5.324;2023-07-13T09:18:59;15.00;;;4.47;;
57055;SDS011;42945;51.718;5.324;2023-07-13T09:21:33;10.05;;;3.70;;
57055;SDS011;42945;51.718;5.324;2023-07-13T09:24:50;10.30;;;3.72;;
57055;SDS011;42945;51.718;5.324;2023-07-13T09:27:01;14.75;;;4.05;;
57055;SDS011;42945;51.718;5.324;2023-07-13T09:29:34;11.98;;;3.70;;
57055;SDS011;42945;51.718;5.324;2023-07-13T09:32:01;12.75;;;3.70;;
57055;SDS011;42945;51.718;5.324;2023-07-13T09:34:31;9.88;;;3.25;;
57055;SDS011;42945;51.718;5.324;2023-07-13T09:36:58;8.10;;;3.30;;
57055;SDS011;42945;51.718;5.324;2023-07-13T09:47:22;15.05;;;5.40;;
57055;SDS011;42945;51.718;5.324;2023-07-13T09:52:23;12.18;;;4.70;;
57055;SDS011;42945;51.718;5.324;2023-07-13T09:54:50;10.93;;;4.47;;
57055;SDS011;42945;51.718;5.324;2023-07-13T09:57:17;11.75;;;4.10;;
57055;SDS011;42945;51.718;5.324;2023-07-13T09:59:48;13.43;;;3.75;;
57055;SDS011;42945;51.718;5.324;2023-07-13T10:02:31;12.15;;;4.22;;
57055;SDS011;42945;51.718;5.324;2023-07-13T10:07:44;9.95;;;3.13;;
57055;SDS011;42945;51.718;5.324;2023-07-13T10:10:14;8.00;;;3.08;;
57055;SDS011;42945;51.718;5.324;2023-07-13T10:12:46;9.48;;;3.13;;
57055;SDS011;42945;51.718;5.324;2023-07-13T10:15:19;10.02;;;2.83;;
57055;SDS011;42945;51.718;5.324;2023-07-13T10:17:48;7.30;;;2.97;;
57055;SDS011;42945;51.718;5.324;2023-07-13T10:20:16;8.13;;;3.20;;
57055;SDS011;42945;51.718;5.324;2023-07-13T10:22:49;8.88;;;3.28;;
57055;SDS011;42945;51.718;5.324;2023-07-13T10:25:18;7.55;;;3.10;;
57055;SDS011;42945;51.718;5.324;2023-07-13T10:27:47;10.88;;;2.72;;
57055;SDS011;42945;51.718;5.324;2023-07-13T10:32:57;9.25;;;3.50;;
57055;SDS011;42945;51.718;5.324;2023-07-13T10:35:24;15.60;;;4.20;;
57055;SDS011;42945;51.718;5.324;2023-07-13T10:38:03;11.73;;;3.80;;
57055;SDS011;42945;51.718;5.324;2023-07-13T10:40:40;11.65;;;4.60;;
57055;SDS011;42945;51.718;5.324;2023-07-13T10:43:24;15.15;;;5.70;;
57055;SDS011;42945;51.718;5.324;2023-07-13T10:45:53;9.98;;;4.95;;
57055;SDS011;42945;51.718;5.324;2023-07-13T10:48:20;16.30;;;5.55;;
57055;SDS011;42945;51.718;5.324;2023-07-13T10:50:48;14.48;;;5.90;;
57055;SDS011;42945;51.718;5.324;2023-07-13T10:53:28;13.57;;;5.82;;
57055;SDS011;42945;51.718;5.324;2023-07-13T10:58:36;13.95;;;5.32;;
57055;SDS011;42945;51.718;5.324;2023-07-13T11:03:34;8.85;;;4.00;;
57055;SDS011;42945;51.718;5.324;2023-07-13T11:13:59;12.48;;;2.92;;
57055;SDS011;42945;51.718;5.324;2023-07-13T11:19:24;8.38;;;2.67;;
57055;SDS011;42945;51.718;5.324;2023-07-13T11:24:47;9.90;;;2.83;;
57055;SDS011;42945;51.718;5.324;2023-07-13T11:27:25;7.90;;;2.80;;
57055;SDS011;42945;51.718;5.324;2023-07-13T11:32:44;5.82;;;2.38;;
57055;SDS011;42945;51.718;5.324;2023-07-13T11:35:16;7.00;;;2.47;;
57055;SDS011;42945;51.718;5.324;2023-07-13T11:37:47;6.47;;;2.50;;
57055;SDS011;42945;51.718;5.324;2023-07-13T11:40:13;5.53;;;2.33;;
57055;SDS011;42945;51.718;5.324;2023-07-13T11:42:39;6.55;;;2.30;;
57055;SDS011;42945;51.718;5.324;2023-07-13T11:45:14;7.40;;;2.13;;
57055;SDS011;42945;51.718;5.324;2023-07-13T11:47:49;7.80;;;1.67;;
57055;SDS011;42945;51.718;5.324;2023-07-13T11:50:23;5.45;;;1.52;;
57055;SDS011;42945;51.718;5.324;2023-07-13T11:52:50;8.65;;;2.30;;
57055;SDS011;42945;51.718;5.324;2023-07-13T11:55:19;6.43;;;1.83;;
57055;SDS011;42945;51.718;5.324;2023-07-13T11:57:51;8.63;;;2.25;;
57055;SDS011;42945;51.718;5.324;2023-07-13T12:00:22;5.25;;;1.40;;
57055;SDS011;42945;51.718;5.324;2023-07-13T12:02:52;5.28;;;1.95;;
57055;SDS011;42945;51.718;5.324;2023-07-13T12:05:20;6.85;;;1.88;;
57055;SDS011;42945;51.718;5.324;2023-07-13T12:07:46;5.55;;;1.77;;
57055;SDS011;42945;51.718;5.324;2023-07-13T12:15:22;5.28;;;1.33;;
57055;SDS011;42945;51.718;5.324;2023-07-13T12:17:51;3.90;;;1.30;;
57055;SDS011;42945;51.718;5.324;2023-07-13T12:20:27;3.30;;;1.20;;
57055;SDS011;42945;51.718;5.324;2023-07-13T12:23:00;5.35;;;1.40;;
57055;SDS011;42945;51.718;5.324;2023-07-13T12:25:27;7.30;;;1.25;;
57055;SDS011;42945;51.718;5.324;2023-07-13T12:27:53;2.83;;;1.40;;
57055;SDS011;42945;51.718;5.324;2023-07-13T12:30:32;2.00;;;1.20;;
57055;SDS011;42945;51.718;5.324;2023-07-13T12:35:31;3.25;;;1.83;;
57055;SDS011;42945;51.718;5.324;2023-07-13T12:38:00;3.08;;;1.52;;
57055;SDS011;42945;51.718;5.324;2023-07-13T12:40:32;3.83;;;1.70;;
57055;SDS011;42945;51.718;5.324;2023-07-13T12:42:59;4.38;;;1.30;;
57055;SDS011;42945;51.718;5.324;2023-07-13T12:45:29;5.05;;;1.73;;
57055;SDS011;42945;51.718;5.324;2023-07-13T12:47:56;6.68;;;1.75;;
57055;SDS011;42945;51.718;5.324;2023-07-13T12:50:29;6.97;;;1.63;;
57055;SDS011;42945;51.718;5.324;2023-07-13T12:53:03;2.42;;;1.05;;
57055;SDS011;42945;51.718;5.324;2023-07-13T12:55:32;5.00;;;1.20;;
57055;SDS011;42945;51.718;5.324;2023-07-13T12:58:09;3.13;;;1.60;;
57055;SDS011;42945;51.718;5.324;2023-07-13T13:00:53;4.50;;;1.60;;
57055;SDS011;42945;51.718;5.324;2023-07-13T13:08:47;6.22;;;1.45;;
57055;SDS011;42945;51.718;5.324;2023-07-13T13:11:15;5.60;;;1.48;;
57055;SDS011;42945;51.718;5.324;2023-07-13T13:13:41;4.43;;;1.58;;
57055;SDS011;42945;51.718;5.324;2023-07-13T13:18:57;4.05;;;1.50;;
57055;SDS011;42945;51.718;5.324;2023-07-13T13:21:27;4.78;;;1.80;;
57055;SDS011;42945;51.718;5.324;2023-07-13T13:23:52;4.15;;;1.50;;
57055;SDS011;42945;51.718;5.324;2023-07-13T13:26:18;5.38;;;1.63;;
57055;SDS011;42945;51.718;5.324;2023-07-13T13:28:45;5.80;;;1.50;;
57055;SDS011;42945;51.718;5.324;2023-07-13T13:31:12;4.65;;;1.73;;
57055;SDS011;42945;51.718;5.324;2023-07-13T13:33:39;6.38;;;1.67;;
57055;SDS011;42945;51.718;5.324;2023-07-13T13:36:17;3.50;;;1.35;;
57055;SDS011;42945;51.718;5.324;2023-07-13T13:38:48;3.38;;;1.13;;
57055;SDS011;42945;51.718;5.324;2023-07-13T13:41:15;2.92;;;1.27;;
57055;SDS011;42945;51.718;5.324;2023-07-13T13:43:41;3.70;;;1.10;;
57055;SDS011;42945;51.718;5.324;2023-07-13T13:46:13;2.55;;;1.10;;
57055;SDS011;42945;51.718;5.324;2023-07-13T13:48:43;4.72;;;1.35;;
57055;SDS011;42945;51.718;5.324;2023-07-13T13:51:17;4.40;;;1.45;;
57055;SDS011;42945;51.718;5.324;2023-07-13T13:53:48;6.10;;;1.65;;
57055;SDS011;42945;51.718;5.324;2023-07-13T13:56:19;4.57;;;1.90;;
57055;SDS011;42945;51.718;5.324;2023-07-13T13:58:46;7.13;;;2.22;;
57055;SDS011;42945;51.718;5.324;2023-07-13T14:01:12;5.40;;;2.22;;
57055;SDS011;42945;51.718;5.324;2023-07-13T14:03:41;8.93;;;2.03;;
57055;SDS011;42945;51.718;5.324;2023-07-13T14:06:07;5.05;;;2.00;;
57055;SDS011;42945;51.718;5.324;2023-07-13T14:08:37;8.32;;;1.98;;
57055;SDS011;42945;51.718;5.324;2023-07-13T14:11:07;6.20;;;1.75;;
57055;SDS011;42945;51.718;5.324;2023-07-13T14:13:38;4.82;;;1.70;;
57055;SDS011;42945;51.718;5.324;2023-07-13T14:16:15;6.60;;;1.80;;
57055;SDS011;42945;51.718;5.324;2023-07-13T14:18:43;7.60;;;2.15;;
57055;SDS011;42945;51.718;5.324;2023-07-13T14:21:20;6.97;;;1.80;;
57055;SDS011;42945;51.718;5.324;2023-07-13T14:23:48;5.07;;;1.90;;
57055;SDS011;42945;51.718;5.324;2023-07-13T14:26:16;8.55;;;2.10;;
57055;SDS011;42945;51.718;5.324;2023-07-13T14:28:45;4.50;;;1.67;;
57055;SDS011;42945;51.718;5.324;2023-07-13T14:31:14;5.80;;;1.88;;
57055;SDS011;42945;51.718;5.324;2023-07-13T14:33:40;9.35;;;1.63;;
57055;SDS011;42945;51.718;5.324;2023-07-13T14:36:27;7.95;;;2.05;;
57055;SDS011;42945;51.718;5.324;2023-07-13T14:41:24;4.55;;;1.48;;
57055;SDS011;42945;51.718;5.324;2023-07-13T14:43:50;3.13;;;1.50;;
57055;SDS011;42945;51.718;5.324;2023-07-13T14:46:18;5.47;;;1.40;;
57055;SDS011;42945;51.718;5.324;2023-07-13T14:48:47;3.47;;;1.48;;
57055;SDS011;42945;51.718;5.324;2023-07-13T14:51:14;3.58;;;1.52;;
57055;SDS011;42945;51.718;5.324;2023-07-13T14:53:39;3.83;;;1.55;;
57055;SDS011;42945;51.718;5.324;2023-07-13T14:56:11;6.35;;;1.73;;
57055;SDS011;42945;51.718;5.324;2023-07-13T14:58:37;7.00;;;1.88;;
57055;SDS011;42945;51.718;5.324;2023-07-13T15:01:07;6.50;;;1.60;;
57055;SDS011;42945;51.718;5.324;2023-07-13T15:03:37;9.27;;;1.77;;
57055;SDS011;42945;51.718;5.324;2023-07-13T15:06:09;5.50;;;1.47;;
57055;SDS011;42945;51.718;5.324;2023-07-13T15:08:37;4.43;;;1.70;;
57055;SDS011;42945;51.718;5.324;2023-07-13T15:11:03;5.13;;;1.50;;
57055;SDS011;42945;51.718;5.324;2023-07-13T15:13:30;7.40;;;2.05;;
57055;SDS011;42945;51.718;5.324;2023-07-13T15:15:55;7.60;;;2.03;;
57055;SDS011;42945;51.718;5.324;2023-07-13T15:18:22;6.75;;;1.80;;
57055;SDS011;42945;51.718;5.324;2023-07-13T15:20:50;7.78;;;2.10;;
57055;SDS011;42945;51.718;5.324;2023-07-13T15:23:21;6.07;;;2.05;;
57055;SDS011;42945;51.718;5.324;2023-07-13T15:25:51;6.72;;;1.85;;
57055;SDS011;42945;51.718;5.324;2023-07-13T15:28:17;6.25;;;1.90;;
57055;SDS011;42945;51.718;5.324;2023-07-13T15:30:46;6.43;;;1.83;;
57055;SDS011;42945;51.718;5.324;2023-07-13T15:33:23;7.35;;;2.13;;
57055;SDS011;42945;51.718;5.324;2023-07-13T15:35:52;5.80;;;1.60;;
57055;SDS011;42945;51.718;5.324;2023-07-13T15:40:52;6.65;;;1.92;;
57055;SDS011;42945;51.718;5.324;2023-07-13T15:43:18;6.78;;;1.88;;
57055;SDS011;42945;51.718;5.324;2023-07-13T15:45:44;6.65;;;1.55;;
57055;SDS011;42945;51.718;5.324;2023-07-13T15:50:48;5.70;;;1.85;;